sensor_id;sensor_type;location;lat;lon;timestamp;pressure;altitude;pressure_sealevel;temperature;humidity
64025;BME280;50266;57.446;26.936;2023-05-15T00:00:05;99993.17;;;13.56;100.0
64025;BME280;50266;57.446;26.936;2023-05-15T00:01:04;99995.52;;;13.57;100.0
64025;BME280;50266;57.446;26.936;2023-05-15T00:02:05;99995.09;;;13.56;100.0
64025;BME280;50266;57.446;26.936;2023-05-15T00:03:04;99992.23;;;13.6;100.0
64025;BME280;50266;57.446;26.936;2023-05-15T00:04:04;99988.75;;;13.71;100.0
64025;BME280;50266;57.446;26.936;2023-05-15T00:05:05;99989.52;;;13.65;100.0
64025;BME280;50266;57.446;26.936;2023-05-15T00:06:05;99991.84;;;13.58;100.0
64025;BME280;50266;57.446;26.936;2023-05-15T00:07:05;99990.22;;;13.64;100.0
64025;BME280;50266;57.446;26.936;2023-05-15T00:08:05;99986.56;;;13.62;100.0
64025;BME280;50266;57.446;26.936;2023-05-15T00:09:05;99987.05;;;13.58;100.0
64025;BME280;50266;57.446;26.936;2023-05-15T00:10:05;99986.98;;;13.54;100.0
64025;BME280;50266;57.446;26.936;2023-05-15T00:11:05;99983.19;;;13.46;100.0
64025;BME280;50266;57.446;26.936;2023-05-15T00:12:05;99984.12;;;13.51;100.0
64025;BME280;50266;57.446;26.936;2023-05-15T00:13:05;99982.62;;;13.46;100.0
64025;BME280;50266;57.446;26.936;2023-05-15T00:14:05;99983.97;;;13.44;100.0
64025;BME280;50266;57.446;26.936;2023-05-15T00:15:05;99987.78;;;13.48;100.0
64025;BME280;50266;57.446;26.936;2023-05-15T00:16:06;99982.72;;;13.42;100.0
64025;BME280;50266;57.446;26.936;2023-05-15T00:17:05;99985.85;;;13.37;100.0
64025;BME280;50266;57.446;26.936;2023-05-15T00:18:05;99986.38;;;13.36;100.0
64025;BME280;50266;57.446;26.936;2023-05-15T00:19:05;99983.84;;;13.31;100.0
64025;BME280;50266;57.446;26.936;2023-05-15T00:20:05;99979.97;;;13.19;100.0
64025;BME280;50266;57.446;26.936;2023-05-15T00:21:05;99983.92;;;13.2;100.0
64025;BME280;50266;57.446;26.936;2023-05-15T00:22:05;99981.11;;;13.16;100.0
64025;BME280;50266;57.446;26.936;2023-05-15T00:23:05;99981.0;;;13.1;100.0
64025;BME280;50266;57.446;26.936;2023-05-15T00:24:05;99976.81;;;12.93;100.0
64025;BME280;50266;57.446;26.936;2023-05-15T00:25:05;99979.17;;;12.93;100.0
64025;BME280;50266;57.446;26.936;2023-05-15T00:26:05;99978.53;;;12.98;100.0
64025;BME280;50266;57.446;26.936;2023-05-15T00:27:05;99979.66;;;12.99;100.0
64025;BME280;50266;57.446;26.936;2023-05-15T00:28:05;99978.12;;;12.92;100.0
64025;BME280;50266;57.446;26.936;2023-05-15T00:29:05;99977.75;;;12.91;100.0
64025;BME280;50266;57.446;26.936;2023-05-15T00:30:05;99978.01;;;12.85;100.0
64025;BME280;50266;57.446;26.936;2023-05-15T00:31:05;99974.98;;;12.86;100.0
64025;BME280;50266;57.446;26.936;2023-05-15T00:32:05;99973.37;;;12.96;100.0
64025;BME280;50266;57.446;26.936;2023-05-15T00:33:05;99977.2;;;12.96;100.0
64025;BME280;50266;57.446;26.936;2023-05-15T00:34:05;99973.98;;;12.91;100.0
64025;BME280;50266;57.446;26.936;2023-05-15T00:35:05;99975.54;;;12.87;100.0
64025;BME280;50266;57.446;26.936;2023-05-15T00:36:05;99973.52;;;13.0;100.0
64025;BME280;50266;57.446;26.936;2023-05-15T00:37:05;99975.45;;;12.9;100.0
64025;BME280;50266;57.446;26.936;2023-05-15T00:38:05;99977.16;;;12.84;100.0
64025;BME280;50266;57.446;26.936;2023-05-15T00:39:05;99976.08;;;12.8;100.0
64025;BME280;50266;57.446;26.936;2023-05-15T00:40:06;99976.33;;;12.89;100.0
64025;BME280;50266;57.446;26.936;2023-05-15T00:41:05;99975.41;;;12.84;100.0
64025;BME280;50266;57.446;26.936;2023-05-15T00:42:05;99978.81;;;12.89;100.0
64025;BME280;50266;57.446;26.936;2023-05-15T00:43:05;99973.59;;;12.95;100.0
64025;BME280;50266;57.446;26.936;2023-05-15T00:44:05;99976.69;;;12.9;100.0
64025;BME280;50266;57.446;26.936;2023-05-15T00:45:05;99975.48;;;12.8;100.0
64025;BME280;50266;57.446;26.936;2023-05-15T00:46:06;99974.42;;;12.77;100.0
64025;BME280;50266;57.446;26.936;2023-05-15T00:47:05;99976.27;;;12.83;100.0
64025;BME280;50266;57.446;26.936;2023-05-15T00:48:06;99974.8;;;12.72;100.0
64025;BME280;50266;57.446;26.936;2023-05-15T00:49:05;99975.89;;;12.74;100.0
64025;BME280;50266;57.446;26.936;2023-05-15T00:50:06;99975.83;;;12.86;100.0
64025;BME280;50266;57.446;26.936;2023-05-15T00:51:05;99976.81;;;12.76;100.0
64025;BME280;50266;57.446;26.936;2023-05-15T00:52:05;99974.62;;;12.74;100.0
64025;BME280;50266;57.446;26.936;2023-05-15T00:53:05;99973.02;;;12.71;100.0
64025;BME280;50266;57.446;26.936;2023-05-15T00:54:05;99977.99;;;12.72;100.0
64025;BME280;50266;57.446;26.936;2023-05-15T00:55:06;99975.45;;;12.63;100.0
64025;BME280;50266;57.446;26.936;2023-05-15T00:56:06;99977.45;;;12.48;100.0
64025;BME280;50266;57.446;26.936;2023-05-15T00:57:05;99975.73;;;12.52;100.0
64025;BME280;50266;57.446;26.936;2023-05-15T00:58:06;99975.14;;;12.56;100.0
64025;BME280;50266;57.446;26.936;2023-05-15T00:59:05;99976.62;;;12.53;100.0
64025;BME280;50266;57.446;26.936;2023-05-15T01:00:06;99975.84;;;12.54;100.0
64025;BME280;50266;57.446;26.936;2023-05-15T01:01:05;99971.86;;;12.49;100.0
64025;BME280;50266;57.446;26.936;2023-05-15T01:02:05;99971.7;;;12.32;100.0
64025;BME280;50266;57.446;26.936;2023-05-15T01:03:05;99970.64;;;12.3;100.0
64025;BME280;50266;57.446;26.936;2023-05-15T01:04:05;99970.67;;;12.35;100.0
64025;BME280;50266;57.446;26.936;2023-05-15T01:05:06;99972.03;;;12.21;100.0
64025;BME280;50266;57.446;26.936;2023-05-15T01:06:05;99970.08;;;12.09;100.0
64025;BME280;50266;57.446;26.936;2023-05-15T01:07:05;99965.7;;;12.12;100.0
64025;BME280;50266;57.446;26.936;2023-05-15T01:08:07;99971.12;;;12.09;100.0
64025;BME280;50266;57.446;26.936;2023-05-15T01:09:05;99965.38;;;12.0;100.0
64025;BME280;50266;57.446;26.936;2023-05-15T01:10:06;99969.18;;;11.98;100.0
64025;BME280;50266;57.446;26.936;2023-05-15T01:11:06;99969.2;;;12.02;100.0
64025;BME280;50266;57.446;26.936;2023-05-15T01:12:06;99972.91;;;11.88;100.0
64025;BME280;50266;57.446;26.936;2023-05-15T01:13:06;99967.65;;;11.86;100.0
64025;BME280;50266;57.446;26.936;2023-05-15T01:14:06;99969.47;;;11.93;100.0
64025;BME280;50266;57.446;26.936;2023-05-15T01:15:06;99974.84;;;11.84;100.0
64025;BME280;50266;57.446;26.936;2023-05-15T01:16:06;99977.64;;;11.86;100.0
64025;BME280;50266;57.446;26.936;2023-05-15T01:17:05;99966.7;;;12.0;100.0
64025;BME280;50266;57.446;26.936;2023-05-15T01:18:06;99969.75;;;11.83;100.0
64025;BME280;50266;57.446;26.936;2023-05-15T01:19:05;99975.7;;;11.83;100.0
64025;BME280;50266;57.446;26.936;2023-05-15T01:20:06;99972.25;;;11.92;100.0
64025;BME280;50266;57.446;26.936;2023-05-15T01:23:15;99971.98;;;11.7;100.0
64025;BME280;50266;57.446;26.936;2023-05-15T01:24:24;99970.39;;;11.7;100.0
64025;BME280;50266;57.446;26.936;2023-05-15T01:26:29;99968.48;;;11.5;100.0
64025;BME280;50266;57.446;26.936;2023-05-15T01:27:27;99968.12;;;11.49;100.0
64025;BME280;50266;57.446;26.936;2023-05-15T01:28:32;99969.09;;;11.52;100.0
64025;BME280;50266;57.446;26.936;2023-05-15T01:30:28;99968.66;;;11.67;100.0
64025;BME280;50266;57.446;26.936;2023-05-15T01:31:28;99964.56;;;11.62;100.0
64025;BME280;50266;57.446;26.936;2023-05-15T01:33:36;99965.53;;;11.54;100.0
64025;BME280;50266;57.446;26.936;2023-05-15T01:34:48;99963.49;;;11.42;100.0
64025;BME280;50266;57.446;26.936;2023-05-15T01:35:43;99967.09;;;11.5;100.0
64025;BME280;50266;57.446;26.936;2023-05-15T01:36:52;99964.47;;;11.4;100.0
64025;BME280;50266;57.446;26.936;2023-05-15T01:37:43;99963.53;;;11.36;100.0
64025;BME280;50266;57.446;26.936;2023-05-15T01:38:43;99966.08;;;11.32;100.0
64025;BME280;50266;57.446;26.936;2023-05-15T01:39:41;99965.2;;;11.34;100.0
64025;BME280;50266;57.446;26.936;2023-05-15T01:40:42;99966.59;;;11.34;100.0
64025;BME280;50266;57.446;26.936;2023-05-15T01:41:44;99964.45;;;11.31;100.0
64025;BME280;50266;57.446;26.936;2023-05-15T01:42:44;99965.86;;;11.32;100.0
64025;BME280;50266;57.446;26.936;2023-05-15T01:43:45;99965.27;;;11.3;100.0
64025;BME280;50266;57.446;26.936;2023-05-15T01:44:49;99963.17;;;11.34;100.0
64025;BME280;50266;57.446;26.936;2023-05-15T01:45:47;99963.61;;;11.36;100.0
64025;BME280;50266;57.446;26.936;2023-05-15T01:46:51;99958.97;;;11.34;100.0
64025;BME280;50266;57.446;26.936;2023-05-15T01:47:49;99963.53;;;11.34;100.0
64025;BME280;50266;57.446;26.936;2023-05-15T01:48:49;99960.72;;;11.28;100.0
64025;BME280;50266;57.446;26.936;2023-05-15T01:49:49;99963.88;;;11.22;100.0
64025;BME280;50266;57.446;26.936;2023-05-15T01:50:49;99961.73;;;11.15;100.0
64025;BME280;50266;57.446;26.936;2023-05-15T01:51:50;99964.34;;;11.16;100.0
64025;BME280;50266;57.446;26.936;2023-05-15T01:52:50;99961.42;;;11.16;100.0
64025;BME280;50266;57.446;26.936;2023-05-15T01:53:49;99959.45;;;11.13;100.0
64025;BME280;50266;57.446;26.936;2023-05-15T01:54:49;99962.95;;;11.14;100.0
64025;BME280;50266;57.446;26.936;2023-05-15T01:55:49;99963.16;;;11.23;100.0
64025;BME280;50266;57.446;26.936;2023-05-15T01:56:49;99954.44;;;11.37;100.0
64025;BME280;50266;57.446;26.936;2023-05-15T01:57:49;99953.59;;;11.28;100.0
64025;BME280;50266;57.446;26.936;2023-05-15T01:58:49;99954.69;;;11.3;100.0
64025;BME280;50266;57.446;26.936;2023-05-15T01:59:49;99953.4;;;11.24;100.0
64025;BME280;50266;57.446;26.936;2023-05-15T02:00:49;99952.77;;;11.1;100.0
64025;BME280;50266;57.446;26.936;2023-05-15T02:01:49;99954.91;;;11.12;100.0
64025;BME280;50266;57.446;26.936;2023-05-15T02:02:49;99953.55;;;11.09;100.0
64025;BME280;50266;57.446;26.936;2023-05-15T02:03:49;99952.23;;;11.11;100.0
64025;BME280;50266;57.446;26.936;2023-05-15T02:04:49;99949.52;;;11.08;100.0
64025;BME280;50266;57.446;26.936;2023-05-15T02:05:49;99951.77;;;11.07;100.0
64025;BME280;50266;57.446;26.936;2023-05-15T02:06:49;99948.3;;;11.04;100.0
64025;BME280;50266;57.446;26.936;2023-05-15T02:07:49;99948.94;;;11.05;100.0
64025;BME280;50266;57.446;26.936;2023-05-15T02:08:49;99946.25;;;11.06;100.0
64025;BME280;50266;57.446;26.936;2023-05-15T02:09:52;99951.36;;;11.05;100.0
64025;BME280;50266;57.446;26.936;2023-05-15T02:10:49;99951.33;;;11.03;100.0
64025;BME280;50266;57.446;26.936;2023-05-15T02:11:49;99950.79;;;11.06;100.0
64025;BME280;50266;57.446;26.936;2023-05-15T02:12:49;99950.92;;;10.97;100.0
64025;BME280;50266;57.446;26.936;2023-05-15T02:13:49;99947.14;;;11.07;100.0
64025;BME280;50266;57.446;26.936;2023-05-15T02:14:49;99947.56;;;11.04;100.0
64025;BME280;50266;57.446;26.936;2023-05-15T02:15:50;99950.44;;;11.05;100.0
64025;BME280;50266;57.446;26.936;2023-05-15T02:16:49;99948.22;;;11.0;100.0
64025;BME280;50266;57.446;26.936;2023-05-15T02:17:49;99949.7;;;11.03;100.0
64025;BME280;50266;57.446;26.936;2023-05-15T02:18:50;99948.02;;;11.05;100.0
64025;BME280;50266;57.446;26.936;2023-05-15T02:19:49;99945.82;;;10.97;100.0
64025;BME280;50266;57.446;26.936;2023-05-15T02:20:50;99950.89;;;10.95;100.0
64025;BME280;50266;57.446;26.936;2023-05-15T02:21:50;99950.03;;;10.93;100.0
64025;BME280;50266;57.446;26.936;2023-05-15T02:22:50;99948.25;;;10.99;100.0
64025;BME280;50266;57.446;26.936;2023-05-15T02:23:50;99948.15;;;10.98;100.0
64025;BME280;50266;57.446;26.936;2023-05-15T02:24:50;99947.53;;;11.03;100.0
64025;BME280;50266;57.446;26.936;2023-05-15T02:26:59;99947.33;;;11.0;100.0
64025;BME280;50266;57.446;26.936;2023-05-15T02:27:55;99944.47;;;11.06;100.0
64025;BME280;50266;57.446;26.936;2023-05-15T02:28:57;99944.03;;;10.96;100.0
64025;BME280;50266;57.446;26.936;2023-05-15T02:30:59;99940.81;;;10.96;100.0
64025;BME280;50266;57.446;26.936;2023-05-15T02:32:05;99940.48;;;10.98;100.0
64025;BME280;50266;57.446;26.936;2023-05-15T02:33:11;99942.42;;;11.03;100.0
64025;BME280;50266;57.446;26.936;2023-05-15T02:34:08;99937.52;;;11.08;100.0
64025;BME280;50266;57.446;26.936;2023-05-15T02:35:20;99937.63;;;11.21;100.0
64025;BME280;50266;57.446;26.936;2023-05-15T02:36:07;99936.98;;;11.16;100.0
64025;BME280;50266;57.446;26.936;2023-05-15T02:37:07;99933.92;;;11.31;100.0
64025;BME280;50266;57.446;26.936;2023-05-15T02:38:07;99935.42;;;11.4;100.0
64025;BME280;50266;57.446;26.936;2023-05-15T02:39:06;99934.61;;;11.48;100.0
64025;BME280;50266;57.446;26.936;2023-05-15T02:40:10;99931.53;;;11.36;100.0
64025;BME280;50266;57.446;26.936;2023-05-15T02:41:07;99930.01;;;11.41;100.0
64025;BME280;50266;57.446;26.936;2023-05-15T02:42:07;99930.88;;;11.51;100.0
64025;BME280;50266;57.446;26.936;2023-05-15T02:43:07;99932.42;;;11.51;100.0
64025;BME280;50266;57.446;26.936;2023-05-15T02:44:07;99933.06;;;11.57;100.0
64025;BME280;50266;57.446;26.936;2023-05-15T02:45:07;99932.38;;;11.48;100.0
64025;BME280;50266;57.446;26.936;2023-05-15T02:46:07;99926.27;;;11.44;100.0
64025;BME280;50266;57.446;26.936;2023-05-15T02:47:07;99928.17;;;11.5;100.0
64025;BME280;50266;57.446;26.936;2023-05-15T02:48:07;99925.32;;;11.5;100.0
64025;BME280;50266;57.446;26.936;2023-05-15T02:49:07;99927.08;;;11.57;100.0
64025;BME280;50266;57.446;26.936;2023-05-15T02:50:07;99919.06;;;11.57;100.0
64025;BME280;50266;57.446;26.936;2023-05-15T02:51:07;99921.08;;;11.63;100.0
64025;BME280;50266;57.446;26.936;2023-05-15T02:52:07;99918.62;;;11.64;100.0
64025;BME280;50266;57.446;26.936;2023-05-15T02:53:07;99914.86;;;11.67;100.0
64025;BME280;50266;57.446;26.936;2023-05-15T02:54:07;99917.41;;;11.85;100.0
64025;BME280;50266;57.446;26.936;2023-05-15T02:55:07;99916.34;;;11.81;100.0
64025;BME280;50266;57.446;26.936;2023-05-15T02:56:07;99916.97;;;11.88;100.0
64025;BME280;50266;57.446;26.936;2023-05-15T02:57:07;99916.12;;;11.84;100.0
64025;BME280;50266;57.446;26.936;2023-05-15T02:58:07;99917.09;;;11.89;100.0
64025;BME280;50266;57.446;26.936;2023-05-15T02:59:07;99920.3;;;11.92;100.0
64025;BME280;50266;57.446;26.936;2023-05-15T03:00:07;99920.47;;;11.98;100.0
64025;BME280;50266;57.446;26.936;2023-05-15T03:01:07;99918.59;;;11.97;100.0
64025;BME280;50266;57.446;26.936;2023-05-15T03:02:07;99918.02;;;11.81;100.0
64025;BME280;50266;57.446;26.936;2023-05-15T03:03:07;99919.98;;;11.79;100.0
64025;BME280;50266;57.446;26.936;2023-05-15T03:04:07;99924.93;;;11.81;100.0
64025;BME280;50266;57.446;26.936;2023-05-15T03:05:07;99922.59;;;11.83;100.0
64025;BME280;50266;57.446;26.936;2023-05-15T03:06:07;99924.17;;;11.91;100.0
64025;BME280;50266;57.446;26.936;2023-05-15T03:07:07;99925.98;;;11.92;100.0
64025;BME280;50266;57.446;26.936;2023-05-15T03:08:07;99924.03;;;12.01;100.0
64025;BME280;50266;57.446;26.936;2023-05-15T03:09:07;99920.02;;;11.99;100.0
64025;BME280;50266;57.446;26.936;2023-05-15T03:10:07;99926.62;;;12.03;100.0
64025;BME280;50266;57.446;26.936;2023-05-15T03:11:07;99921.95;;;11.97;100.0
64025;BME280;50266;57.446;26.936;2023-05-15T03:12:07;99918.86;;;12.03;100.0
64025;BME280;50266;57.446;26.936;2023-05-15T03:13:07;99914.84;;;12.09;100.0
64025;BME280;50266;57.446;26.936;2023-05-15T03:14:07;99915.82;;;12.16;100.0
64025;BME280;50266;57.446;26.936;2023-05-15T03:15:07;99915.22;;;12.1;100.0
64025;BME280;50266;57.446;26.936;2023-05-15T03:16:07;99916.36;;;12.17;100.0
64025;BME280;50266;57.446;26.936;2023-05-15T03:17:07;99917.95;;;12.19;100.0
64025;BME280;50266;57.446;26.936;2023-05-15T03:18:07;99917.2;;;12.23;100.0
64025;BME280;50266;57.446;26.936;2023-05-15T03:19:07;99918.93;;;12.26;100.0
64025;BME280;50266;57.446;26.936;2023-05-15T03:20:07;99917.22;;;12.29;100.0
64025;BME280;50266;57.446;26.936;2023-05-15T03:21:07;99918.43;;;12.42;100.0
64025;BME280;50266;57.446;26.936;2023-05-15T03:22:07;99918.77;;;12.42;100.0
64025;BME280;50266;57.446;26.936;2023-05-15T03:23:07;99917.45;;;12.51;100.0
64025;BME280;50266;57.446;26.936;2023-05-15T03:24:07;99916.59;;;12.44;100.0
64025;BME280;50266;57.446;26.936;2023-05-15T03:25:10;99910.98;;;12.56;100.0
64025;BME280;50266;57.446;26.936;2023-05-15T03:26:07;99918.38;;;12.53;100.0
64025;BME280;50266;57.446;26.936;2023-05-15T03:27:07;99912.8;;;12.55;100.0
64025;BME280;50266;57.446;26.936;2023-05-15T03:28:07;99912.12;;;12.57;100.0
64025;BME280;50266;57.446;26.936;2023-05-15T03:29:07;99915.5;;;12.66;100.0
64025;BME280;50266;57.446;26.936;2023-05-15T03:30:08;99909.92;;;12.66;100.0
64025;BME280;50266;57.446;26.936;2023-05-15T03:31:07;99909.44;;;12.65;100.0
64025;BME280;50266;57.446;26.936;2023-05-15T03:32:07;99909.8;;;12.63;100.0
64025;BME280;50266;57.446;26.936;2023-05-15T03:33:07;99911.53;;;12.61;100.0
64025;BME280;50266;57.446;26.936;2023-05-15T03:34:07;99907.77;;;12.66;100.0
64025;BME280;50266;57.446;26.936;2023-05-15T03:35:08;99906.56;;;12.74;100.0
64025;BME280;50266;57.446;26.936;2023-05-15T03:36:07;99909.05;;;12.78;100.0
64025;BME280;50266;57.446;26.936;2023-05-15T03:37:07;99910.44;;;12.76;100.0
64025;BME280;50266;57.446;26.936;2023-05-15T03:38:07;99906.92;;;12.79;100.0
64025;BME280;50266;57.446;26.936;2023-05-15T03:39:07;99910.75;;;12.81;100.0
64025;BME280;50266;57.446;26.936;2023-05-15T03:40:08;99907.34;;;12.9;100.0
64025;BME280;50266;57.446;26.936;2023-05-15T03:41:08;99904.5;;;12.96;100.0
64025;BME280;50266;57.446;26.936;2023-05-15T03:42:07;99911.11;;;12.97;100.0
64025;BME280;50266;57.446;26.936;2023-05-15T03:43:07;99907.38;;;12.89;100.0
64025;BME280;50266;57.446;26.936;2023-05-15T03:44:07;99900.92;;;13.03;100.0
64025;BME280;50266;57.446;26.936;2023-05-15T03:45:08;99901.53;;;13.05;100.0
64025;BME280;50266;57.446;26.936;2023-05-15T03:46:08;99901.3;;;13.0;100.0
64025;BME280;50266;57.446;26.936;2023-05-15T03:47:08;99899.31;;;12.98;100.0
64025;BME280;50266;57.446;26.936;2023-05-15T03:48:08;99899.73;;;13.0;100.0
64025;BME280;50266;57.446;26.936;2023-05-15T03:49:08;99900.0;;;12.98;100.0
64025;BME280;50266;57.446;26.936;2023-05-15T03:50:08;99896.62;;;13.05;100.0
64025;BME280;50266;57.446;26.936;2023-05-15T03:51:08;99895.52;;;13.05;100.0
64025;BME280;50266;57.446;26.936;2023-05-15T03:52:08;99896.76;;;13.14;100.0
64025;BME280;50266;57.446;26.936;2023-05-15T03:53:08;99897.23;;;13.14;100.0
64025;BME280;50266;57.446;26.936;2023-05-15T03:54:08;99900.34;;;13.07;100.0
64025;BME280;50266;57.446;26.936;2023-05-15T03:55:08;99898.33;;;13.12;100.0
64025;BME280;50266;57.446;26.936;2023-05-15T03:56:08;99902.46;;;13.18;100.0
64025;BME280;50266;57.446;26.936;2023-05-15T03:57:08;99893.47;;;13.3;100.0
64025;BME280;50266;57.446;26.936;2023-05-15T03:58:08;99896.33;;;13.26;100.0
64025;BME280;50266;57.446;26.936;2023-05-15T03:59:08;99893.34;;;13.26;100.0
64025;BME280;50266;57.446;26.936;2023-05-15T04:00:08;99895.41;;;13.35;100.0
64025;BME280;50266;57.446;26.936;2023-05-15T04:01:08;99894.36;;;13.38;100.0
64025;BME280;50266;57.446;26.936;2023-05-15T04:02:08;99896.66;;;13.39;100.0
64025;BME280;50266;57.446;26.936;2023-05-15T04:03:09;99894.69;;;13.38;100.0
64025;BME280;50266;57.446;26.936;2023-05-15T04:04:08;99894.34;;;13.42;100.0
64025;BME280;50266;57.446;26.936;2023-05-15T04:05:08;99893.17;;;13.42;100.0
64025;BME280;50266;57.446;26.936;2023-05-15T04:06:08;99890.02;;;13.44;100.0
64025;BME280;50266;57.446;26.936;2023-05-15T04:07:08;99886.22;;;13.39;100.0
64025;BME280;50266;57.446;26.936;2023-05-15T04:08:08;99883.47;;;13.43;100.0
64025;BME280;50266;57.446;26.936;2023-05-15T04:09:08;99883.16;;;13.46;100.0
64025;BME280;50266;57.446;26.936;2023-05-15T04:10:08;99883.55;;;13.5;100.0
64025;BME280;50266;57.446;26.936;2023-05-15T04:11:09;99882.85;;;13.52;100.0
64025;BME280;50266;57.446;26.936;2023-05-15T04:12:08;99881.84;;;13.63;100.0
64025;BME280;50266;57.446;26.936;2023-05-15T04:13:08;99880.56;;;13.65;100.0
64025;BME280;50266;57.446;26.936;2023-05-15T04:14:08;99884.23;;;13.6;100.0
64025;BME280;50266;57.446;26.936;2023-05-15T04:15:15;99877.34;;;13.63;100.0
64025;BME280;50266;57.446;26.936;2023-05-15T04:16:11;99874.84;;;13.73;100.0
64025;BME280;50266;57.446;26.936;2023-05-15T04:17:11;99878.52;;;13.8;100.0
64025;BME280;50266;57.446;26.936;2023-05-15T04:18:11;99876.66;;;13.69;100.0
64025;BME280;50266;57.446;26.936;2023-05-15T04:19:12;99879.57;;;13.72;100.0
64025;BME280;50266;57.446;26.936;2023-05-15T04:20:12;99878.29;;;13.81;100.0
64025;BME280;50266;57.446;26.936;2023-05-15T04:21:12;99873.82;;;13.77;100.0
64025;BME280;50266;57.446;26.936;2023-05-15T04:22:12;99877.4;;;13.77;100.0
64025;BME280;50266;57.446;26.936;2023-05-15T04:23:12;99876.38;;;13.86;100.0
64025;BME280;50266;57.446;26.936;2023-05-15T04:24:12;99879.77;;;13.87;100.0
64025;BME280;50266;57.446;26.936;2023-05-15T04:25:12;99879.23;;;13.91;100.0
64025;BME280;50266;57.446;26.936;2023-05-15T04:26:12;99879.28;;;13.93;100.0
64025;BME280;50266;57.446;26.936;2023-05-15T04:27:12;99881.09;;;13.87;100.0
64025;BME280;50266;57.446;26.936;2023-05-15T04:28:12;99883.58;;;13.88;100.0
64025;BME280;50266;57.446;26.936;2023-05-15T04:29:12;99887.22;;;13.95;100.0
64025;BME280;50266;57.446;26.936;2023-05-15T04:30:12;99878.0;;;14.08;100.0
64025;BME280;50266;57.446;26.936;2023-05-15T04:31:12;99879.73;;;14.03;100.0
64025;BME280;50266;57.446;26.936;2023-05-15T04:32:12;99884.01;;;13.99;100.0
64025;BME280;50266;57.446;26.936;2023-05-15T04:33:12;99881.72;;;14.09;100.0
64025;BME280;50266;57.446;26.936;2023-05-15T04:34:12;99880.63;;;14.18;100.0
64025;BME280;50266;57.446;26.936;2023-05-15T04:35:12;99884.73;;;14.25;100.0
64025;BME280;50266;57.446;26.936;2023-05-15T04:36:12;99883.88;;;14.2;100.0
64025;BME280;50266;57.446;26.936;2023-05-15T04:37:12;99883.55;;;14.15;100.0
64025;BME280;50266;57.446;26.936;2023-05-15T04:38:12;99886.42;;;14.23;100.0
64025;BME280;50266;57.446;26.936;2023-05-15T04:39:12;99883.7;;;14.24;100.0
64025;BME280;50266;57.446;26.936;2023-05-15T04:40:12;99889.81;;;14.24;100.0
64025;BME280;50266;57.446;26.936;2023-05-15T04:41:12;99887.58;;;14.3;100.0
64025;BME280;50266;57.446;26.936;2023-05-15T04:42:12;99885.84;;;14.33;100.0
64025;BME280;50266;57.446;26.936;2023-05-15T04:43:12;99887.78;;;14.28;100.0
64025;BME280;50266;57.446;26.936;2023-05-15T04:44:12;99887.98;;;14.35;100.0
64025;BME280;50266;57.446;26.936;2023-05-15T04:45:13;99891.28;;;14.58;100.0
64025;BME280;50266;57.446;26.936;2023-05-15T04:46:12;99885.72;;;14.54;100.0
64025;BME280;50266;57.446;26.936;2023-05-15T04:47:12;99885.45;;;14.41;100.0
64025;BME280;50266;57.446;26.936;2023-05-15T04:48:12;99884.34;;;14.56;100.0
64025;BME280;50266;57.446;26.936;2023-05-15T04:49:12;99887.28;;;14.66;100.0
64025;BME280;50266;57.446;26.936;2023-05-15T04:50:12;99882.41;;;14.47;100.0
64025;BME280;50266;57.446;26.936;2023-05-15T04:51:12;99884.55;;;14.54;100.0
64025;BME280;50266;57.446;26.936;2023-05-15T04:52:12;99883.58;;;14.55;100.0
64025;BME280;50266;57.446;26.936;2023-05-15T04:53:13;99886.23;;;14.7;100.0
64025;BME280;50266;57.446;26.936;2023-05-15T04:54:13;99886.37;;;14.74;100.0
64025;BME280;50266;57.446;26.936;2023-05-15T04:55:13;99889.87;;;14.77;100.0
64025;BME280;50266;57.446;26.936;2023-05-15T04:56:13;99887.8;;;14.69;100.0
64025;BME280;50266;57.446;26.936;2023-05-15T04:57:13;99886.32;;;14.7;100.0
64025;BME280;50266;57.446;26.936;2023-05-15T04:58:13;99887.75;;;14.79;100.0
64025;BME280;50266;57.446;26.936;2023-05-15T04:59:13;99881.47;;;14.76;100.0
64025;BME280;50266;57.446;26.936;2023-05-15T05:00:13;99883.0;;;14.82;100.0
64025;BME280;50266;57.446;26.936;2023-05-15T05:01:13;99878.88;;;14.86;100.0
64025;BME280;50266;57.446;26.936;2023-05-15T05:02:13;99880.59;;;14.93;100.0
64025;BME280;50266;57.446;26.936;2023-05-15T05:03:13;99876.36;;;15.08;100.0
64025;BME280;50266;57.446;26.936;2023-05-15T05:04:13;99877.27;;;15.05;100.0
64025;BME280;50266;57.446;26.936;2023-05-15T05:05:13;99880.03;;;15.2;100.0
64025;BME280;50266;57.446;26.936;2023-05-15T05:06:13;99878.98;;;15.14;100.0
64025;BME280;50266;57.446;26.936;2023-05-15T05:07:13;99877.98;;;15.17;100.0
64025;BME280;50266;57.446;26.936;2023-05-15T05:08:13;99878.73;;;15.17;100.0
64025;BME280;50266;57.446;26.936;2023-05-15T05:09:13;99878.16;;;15.22;100.0
64025;BME280;50266;57.446;26.936;2023-05-15T05:10:13;99873.64;;;15.35;100.0
64025;BME280;50266;57.446;26.936;2023-05-15T05:11:13;99871.39;;;15.35;100.0
64025;BME280;50266;57.446;26.936;2023-05-15T05:12:13;99869.61;;;15.46;100.0
64025;BME280;50266;57.446;26.936;2023-05-15T05:13:13;99866.94;;;15.55;100.0
64025;BME280;50266;57.446;26.936;2023-05-15T05:14:13;99870.48;;;15.45;100.0
64025;BME280;50266;57.446;26.936;2023-05-15T05:15:14;99873.3;;;15.38;100.0
64025;BME280;50266;57.446;26.936;2023-05-15T05:16:13;99871.08;;;15.45;100.0
64025;BME280;50266;57.446;26.936;2023-05-15T05:17:13;99873.7;;;15.43;100.0
64025;BME280;50266;57.446;26.936;2023-05-15T05:18:13;99873.12;;;15.67;100.0
64025;BME280;50266;57.446;26.936;2023-05-15T05:19:14;99874.27;;;15.81;100.0
64025;BME280;50266;57.446;26.936;2023-05-15T05:20:13;99869.55;;;15.64;100.0
64025;BME280;50266;57.446;26.936;2023-05-15T05:21:13;99872.23;;;15.67;100.0
64025;BME280;50266;57.446;26.936;2023-05-15T05:22:13;99873.12;;;15.72;100.0